createdAt,value
2022-09-04T00:00:16.241Z,13.40
2022-09-04T00:06:09.918Z,13.30
2022-09-04T00:11:45.078Z,13.40
2022-09-04T00:18:20.871Z,13.30
2022-09-04T00:24:02.515Z,13.30
2022-09-04T00:30:17.257Z,13.20
2022-09-04T00:36:01.086Z,13.20
2022-09-04T00:41:59.510Z,13.20
2022-09-04T00:47:53.001Z,13.20
2022-09-04T00:53:42.362Z,13.20
2022-09-04T00:59:54.109Z,13.20
2022-09-04T01:05:45.580Z,13.20
2022-09-04T01:11:25.263Z,13.20
2022-09-04T01:17:41.211Z,13.20
2022-09-04T01:23:31.925Z,13.20
2022-09-04T01:29:33.448Z,13.30
2022-09-04T01:35:27.022Z,13.30
2022-09-04T01:41:28.413Z,13.30
2022-09-04T01:47:21.959Z,13.40
2022-09-04T01:53:01.164Z,13.40
2022-09-04T01:58:55.176Z,13.40
2022-09-04T02:04:37.293Z,13.50
2022-09-04T02:10:37.535Z,13.50
2022-09-04T02:16:22.261Z,13.50
2022-09-04T02:22:09.082Z,13.50
2022-09-04T02:28:07.676Z,13.50
2022-09-04T02:34:18.519Z,13.50
2022-09-04T02:40:12.002Z,13.50
2022-09-04T02:46:02.345Z,13.50
2022-09-04T02:52:33.608Z,13.50
2022-09-04T02:58:27.491Z,13.50
2022-09-04T03:04:06.119Z,13.50
2022-09-04T03:10:05.584Z,13.50
2022-09-04T03:15:51.053Z,13.50
2022-09-04T03:21:43.755Z,13.50
2022-09-04T03:27:15.300Z,13.50
2022-09-04T03:33:07.516Z,13.40
2022-09-04T03:39:02.694Z,13.40
2022-09-04T03:44:44.332Z,13.30
2022-09-04T03:50:35.524Z,13.30
2022-09-04T03:56:23.272Z,13.30
2022-09-04T04:02:23.060Z,13.20
2022-09-04T04:08:34.822Z,13.20
2022-09-04T04:14:39.220Z,13.10
2022-09-04T04:20:44.591Z,13.10
2022-09-04T04:26:26.341Z,13.20
2022-09-04T04:32:41.555Z,13.20
2022-09-04T04:38:37.035Z,13.20
2022-09-04T04:44:16.543Z,13.20
2022-09-04T04:50:22.004Z,13.20
2022-09-04T04:56:19.306Z,13.20
2022-09-04T05:02:25.421Z,13.20
2022-09-04T05:08:22.734Z,13.20
2022-09-04T05:13:59.572Z,13.30
2022-09-04T05:19:47.794Z,13.30
2022-09-04T05:25:59.812Z,13.40
2022-09-04T05:31:42.145Z,13.40
2022-09-04T05:38:13.143Z,13.50
2022-09-04T05:43:59.032Z,13.50
2022-09-04T05:49:49.591Z,13.60
2022-09-04T05:55:32.424Z,13.80
2022-09-04T06:01:36.202Z,14.00
2022-09-04T06:07:12.528Z,14.30
2022-09-04T06:13:21.390Z,14.50
2022-09-04T06:19:31.044Z,14.80
2022-09-04T06:25:16.644Z,15.10
2022-09-04T06:31:03.197Z,15.30
2022-09-04T06:36:46.772Z,15.60
2022-09-04T06:43:03.797Z,15.90
2022-09-04T06:48:49.668Z,16.10
2022-09-04T06:54:39.683Z,16.40
2022-09-04T07:00:18.532Z,16.70
2022-09-04T07:06:15.013Z,17.00
2022-09-04T07:12:16.983Z,17.30
2022-09-04T07:18:15.412Z,17.50
2022-09-04T07:24:09.054Z,17.80
2022-09-04T07:29:55.247Z,18.10
2022-09-04T07:35:38.543Z,18.30
2022-09-04T07:41:31.369Z,18.60
2022-09-04T07:47:22.291Z,18.80
2022-09-04T07:53:19.837Z,19.00
2022-09-04T07:58:49.485Z,19.10
2022-09-04T08:04:58.737Z,19.40
2022-09-04T08:10:47.554Z,19.60
2022-09-04T08:16:28.652Z,19.90
2022-09-04T08:21:57.152Z,20.00
2022-09-04T08:27:44.543Z,20.20
2022-09-04T08:34:00.126Z,20.50
2022-09-04T08:39:48.982Z,20.60
2022-09-04T08:46:04.150Z,20.80
2022-09-04T08:51:57.219Z,21.00
2022-09-04T08:57:40.529Z,21.00
2022-09-04T09:03:45.403Z,21.20
2022-09-04T09:09:31.188Z,21.50
2022-09-04T09:15:14.093Z,21.70
2022-09-04T09:21:23.734Z,21.80
2022-09-04T09:27:07.453Z,22.00
2022-09-04T09:33:35.583Z,22.20
2022-09-04T09:39:18.310Z,22.40
2022-09-04T09:45:11.422Z,22.60
2022-09-04T09:51:30.145Z,22.80
2022-09-04T09:57:14.942Z,22.90
2022-09-04T10:03:24.545Z,23.20
2022-09-04T10:09:47.931Z,23.50
2022-09-04T10:16:06.789Z,23.70
2022-09-04T10:22:43.981Z,23.70
2022-09-04T10:28:14.372Z,23.70
2022-09-04T10:34:24.201Z,23.90
2022-09-04T10:40:31.433Z,24.10
2022-09-04T10:46:22.711Z,24.40
2022-09-04T10:52:00.269Z,24.60
2022-09-04T10:57:42.934Z,24.80
2022-09-04T11:03:22.756Z,25.10
2022-09-04T11:09:31.028Z,24.90
2022-09-04T11:15:26.807Z,25.10
2022-09-04T11:21:32.946Z,24.70
2022-09-04T11:27:05.968Z,24.30
2022-09-04T11:33:24.735Z,24.10
2022-09-04T11:39:48.301Z,23.90
2022-09-04T11:45:53.565Z,24.00
2022-09-04T11:52:37.055Z,23.90
2022-09-04T11:58:38.029Z,23.80
2022-09-04T12:05:04.979Z,24.40
2022-09-04T12:11:21.263Z,24.40
2022-09-04T12:17:47.602Z,24.20
2022-09-04T12:23:55.937Z,24.20
2022-09-04T12:29:50.449Z,24.70
2022-09-04T12:35:48.365Z,25.10
2022-09-04T12:41:25.661Z,25.30
2022-09-04T12:47:14.086Z,25.70
2022-09-04T12:53:01.093Z,25.70
2022-09-04T12:58:59.451Z,25.40
2022-09-04T13:04:27.592Z,25.10
2022-09-04T13:10:32.825Z,24.80
2022-09-04T13:16:36.733Z,24.50
2022-09-04T13:22:26.587Z,24.30
2022-09-04T13:28:04.202Z,24.80
2022-09-04T13:34:13.479Z,25.50
2022-09-04T13:40:12.519Z,26.40
2022-09-04T13:45:55.617Z,27.70
2022-09-04T13:51:36.128Z,27.90
2022-09-04T13:57:14.974Z,28.30
2022-09-04T14:02:44.951Z,28.30
2022-09-04T14:08:21.233Z,28.60
2022-09-04T14:14:41.365Z,30.80
2022-09-04T14:20:44.117Z,33.20
2022-09-04T14:26:24.583Z,34.80
2022-09-04T14:32:10.457Z,36.20
2022-09-04T14:37:54.286Z,37.00
2022-09-04T14:43:46.976Z,38.20
2022-09-04T14:49:23.563Z,38.60
2022-09-04T14:54:58.119Z,38.70
2022-09-04T15:00:29.333Z,36.20
2022-09-04T15:06:05.664Z,33.90
2022-09-04T15:11:34.975Z,32.10
2022-09-04T15:17:12.938Z,30.50
2022-09-04T15:23:13.259Z,29.30
2022-09-04T15:28:50.383Z,28.50
2022-09-04T15:34:26.609Z,28.00
2022-09-04T15:40:16.134Z,27.20
2022-09-04T15:45:48.517Z,26.80
2022-09-04T15:51:43.477Z,26.30
2022-09-04T15:57:36.043Z,26.00
2022-09-04T16:03:27.161Z,25.70
2022-09-04T16:09:12.181Z,25.50
2022-09-04T16:14:53.744Z,25.30
2022-09-04T16:20:35.388Z,25.20
2022-09-04T16:26:18.210Z,25.10
2022-09-04T16:31:54.414Z,24.90
2022-09-04T16:37:40.067Z,24.70
2022-09-04T16:43:39.124Z,24.50
2022-09-04T16:49:24.016Z,24.30
2022-09-04T16:55:06.487Z,24.00
2022-09-04T17:01:14.376Z,23.90
2022-09-04T17:07:02.519Z,23.70
2022-09-04T17:12:53.435Z,23.50
2022-09-04T17:18:24.829Z,23.40
2022-09-04T17:29:00.494Z,23.20
2022-09-04T17:30:06.871Z,23.10
2022-09-04T17:40:44.603Z,23.00
2022-09-04T17:42:09.256Z,22.80
2022-09-04T17:47:43.822Z,22.70
2022-09-04T17:53:22.971Z,22.60
2022-09-04T17:59:28.794Z,22.40
2022-09-04T18:05:18.937Z,22.20
2022-09-04T18:10:53.942Z,22.10
2022-09-04T18:17:11.203Z,22.00
2022-09-04T18:22:44.978Z,21.90
2022-09-04T18:28:29.413Z,21.70
2022-09-04T18:37:18.211Z,21.50
2022-09-04T18:40:40.701Z,21.30
2022-09-04T18:50:38.514Z,21.10
2022-09-04T18:52:20.474Z,20.90
2022-09-04T18:57:57.007Z,20.80
2022-09-04T19:03:46.102Z,20.50
2022-09-04T19:09:25.772Z,20.30
2022-09-04T19:15:02.088Z,20.10
2022-09-04T19:20:48.321Z,20.00
2022-09-04T19:26:36.040Z,19.80
2022-09-04T19:32:14.561Z,19.60
2022-09-04T19:42:39.318Z,19.40
2022-09-04T19:46:14.129Z,19.30
2022-09-04T19:53:34.343Z,19.10
2022-09-04T19:57:16.112Z,19.00
2022-09-04T20:02:44.785Z,18.80
2022-09-04T20:08:32.267Z,18.70
2022-09-04T20:14:15.013Z,18.60
2022-09-04T20:19:59.420Z,18.50
2022-09-04T20:25:34.782Z,18.40
2022-09-04T20:31:36.254Z,18.20
2022-09-04T20:37:33.082Z,18.10
2022-09-04T20:43:04.196Z,18.00
2022-09-04T20:52:50.302Z,17.90
2022-09-04T20:54:59.543Z,17.80
2022-09-04T21:03:18.180Z,17.60
2022-09-04T21:06:38.372Z,17.50
2022-09-04T21:12:15.772Z,17.40
2022-09-04T21:18:29.545Z,17.20
2022-09-04T21:24:22.160Z,17.10
2022-09-04T21:30:08.741Z,17.00
2022-09-04T21:35:51.105Z,16.90
2022-09-04T21:42:01.821Z,16.70
2022-09-04T21:48:42.259Z,16.70
2022-09-04T21:56:38.128Z,16.60
2022-09-04T22:02:36.671Z,16.50
2022-09-04T22:09:30.424Z,16.40
2022-09-04T22:13:39.418Z,16.40
2022-09-04T22:19:16.683Z,16.30
2022-09-04T22:25:18.217Z,16.20
2022-09-04T22:30:54.855Z,16.20
2022-09-04T22:36:28.290Z,16.10
2022-09-04T22:42:07.886Z,16.00
2022-09-04T22:48:11.753Z,15.90
2022-09-04T22:54:17.931Z,15.80
2022-09-04T23:00:19.641Z,15.70
2022-09-04T23:06:27.400Z,15.60
2022-09-04T23:13:52.956Z,15.60
2022-09-04T23:23:09.406Z,15.50
2022-09-04T23:26:44.825Z,15.40
2022-09-04T23:31:11.118Z,15.40
2022-09-04T23:36:47.960Z,15.30
2022-09-04T23:42:29.537Z,15.30
2022-09-04T23:48:12.453Z,15.20
2022-09-04T23:54:25.780Z,15.20
